This is the latest recevied weather packets stored in our database for station/object KI5GCD-13. If no packets are shown the sender has not sent any weather packets the latest 10 day(s).
| Time | Temp. | Humidity | Pressure | Rain* | Wind** | Luminosity | Snow |
|---|---|---|---|---|---|---|---|
| 1777883687 | 17.78° C | 62% | 1007 hPa | 0 mm | 0.89 m/s, 224° | - | - |
| 1777883387 | 17.78° C | 61% | 1007.1 hPa | 0 mm | 0.89 m/s, 185° | - | - |
| 1777883088 | 17.78° C | 61% | 1007 hPa | 0 mm | 0.89 m/s, 207° | - | - |
| 1777882788 | 17.78° C | 60% | 1007.1 hPa | 0 mm | 1.34 m/s, 170° | - | - |
| 1777882487 | 17.78° C | 60% | 1007.1 hPa | 0 mm | 1.34 m/s, 170° | - | - |
| 1777882188 | 17.78° C | 60% | 1007 hPa | 0 mm | 0.89 m/s, 223° | - | - |
| 1777881887 | 17.78° C | 60% | 1007.2 hPa | 0 mm | 0.89 m/s, 234° | - | - |
| 1777881588 | 17.78° C | 61% | 1007.1 hPa | 0 mm | 0 m/s | - | - |
| 1777881288 | 17.78° C | 60% | 1007.2 hPa | 0 mm | 0.89 m/s, 171° | - | - |
| 1777880987 | 17.78° C | 60% | 1007.3 hPa | 0 mm | 0.45 m/s, 171° | - | - |
| 1777880687 | 17.78° C | 60% | 1007.2 hPa | 0 mm | 1.34 m/s, 182° | - | - |
| 1777880387 | 17.78° C | 61% | 1007.3 hPa | 0 mm | 0.45 m/s, 238° | - | - |
| 1777880087 | 17.78° C | 61% | 1007.3 hPa | 0 mm | 0.89 m/s, 187° | - | - |
| 1777879787 | 17.78° C | 60% | 1007.4 hPa | 0 mm | 1.34 m/s, 198° | - | - |
| 1777879487 | 17.78° C | 60% | 1007.4 hPa | 0 mm | 0.89 m/s, 215° | - | - |
| 1777879187 | 17.78° C | 61% | 1007.5 hPa | 0 mm | 0.45 m/s, 262° | - | - |
| 1777878887 | 18.33° C | 59% | 1007.4 hPa | 0 mm | 0.45 m/s, 217° | - | - |
| 1777878588 | 18.33° C | 59% | 1007.5 hPa | 0 mm | 1.79 m/s, 242° | - | - |
| 1777878287 | 18.33° C | 58% | 1007.5 hPa | 0 mm | 0.89 m/s, 218° | - | - |
| 1777877987 | 18.33° C | 58% | 1007.4 hPa | 0 mm | 0.45 m/s, 216° | - | - |
| 1777877687 | 18.89° C | 57% | 1007.8 hPa | 0 mm | 2.68 m/s, 251° | - | - |
| 1777877387 | 18.89° C | 59% | 1007.7 hPa | 0 mm | 0.45 m/s, 241° | - | - |
| 1777877087 | 18.89° C | 58% | 1007.9 hPa | 0 mm | 1.34 m/s, 272° | - | - |
| 1777876787 | 18.33° C | 60% | 1007.7 hPa | 0 mm | 0.89 m/s, 178° | - | - |
| 1777876487 | 18.33° C | 59% | 1007.9 hPa | 0 mm | 0.45 m/s, 222° | - | - |
* Rain latest hour (hover to see other rain measurements)
** Current wind speed in m/s (hover to see current wind gust speed)